De Land, IL (61839)

6:27 AM CDT on July 29, 2016 (GMT -0500)
City of Monticello Public Works | | Change Station

Elev 653 ft 40.03 °N, 88.58 °W | Updated 9 minutes ago

Fog
Fog
67.8 °F
Feels Like 67.8 °F
N
0.0
Wind Variable Wind from West
Gusts 0.0 mph

Today
High -- | Low -- °F
--% Chance of Precip.
Yesterday
High -- | Low -- °F
Precip. -- in
Pressure 29.91 in
Visibility 0.2 miles
Clouds
Dew Point 67 °F
Humidity 98%
Rainfall 0.00 in
Snow Depth Not available.
5:50 AM 8:11 PM
Waning Crescent, 23% visible
SPECI KCMI 291104Z 34003KT 1/4SM R32R/1600VP6000FT FG VV001 19/18 A2991 RMK AO2 T01890183
Pressure 29.91 in
Visibility 0.2 miles
Clouds
Dew Point 67 °F
Humidity 98%
Rainfall 0.00 in
Snow Depth Not available.
5:50 AM 8:11 PM
Waning Crescent, 23% visible
SPECI KCMI 291104Z 34003KT 1/4SM R32R/1600VP6000FT FG VV001 19/18 A2991 RMK AO2 T01890183

10-Day Weather Forecast

Almanac

Astronomy

Jul. 29, 2016 Rise Set
Actual Time
Civil Twilight
Nautical Twilight
Astronomical Twilight
Moon
Length of Visible Light
Length of Day
Tomorrow will be .
, % of the Moon is Illuminated

Today's Extremes

State Highs State Lows

Community

WunderPhotos

Upload Photos

1,928,312 photos uploaded!

WunderBlog® & News

Nearby

Air Quality

  Air Quality AQ Index Pollutant
Not available.

Snow Depth

Station Depth Elevation

Earthquake Activity

City Distance Mag. Time & Date
Minimum magnitude displayed is 2.5.

Coastal Water Temperatures

Place Temperature

Stations

Nearby Weather Stations

Station Location Temp. Windchill Dew Point Humidity Wind Precip. Elev Updated Type
                   

Watches & Warnings

There are currently no watches in effect.